Nearby METAR Reports

 

KEWB - New Bedford, Massachusetts, USA
Distance from station: ESE 9mi, 15km
Updated: Sat, 26-Nov-2022 8:53am EST
Clear
Clear
 Wind from WNW
Wind: WNW 12 mph , 19 km/h
Temperature: 43°F , 6°C
Wind Chill: 37°F , 3°C
Dew Point: 28°F , -2°C
Humidity: 57%
Barometer: 29.93 inHg , 1013.5 hPa
Clouds: Clear
Visibility: 10 miles , 16 km
2022/11/26 13:53 KEWB 261353Z 29010KT 10SM CLR 06/M02 A2993 RMK AO2 SLP136 T00561022
KTAN - Taunton, Massachusetts, USA
Distance from station: NNE 11mi, 18km
Updated: Sat, 26-Nov-2022 8:52am EST

 
Barometer: 29.93 inHg , 1013.5 hPa
2022/11/26 13:52 KTAN 261352Z AUTO A2993 RMK AO2 SLPNO PWINO FZRANO TSNO $
 
KPVD - Providence/Green, Rhode Island, USA
Distance from station: W 16mi, 26km
Updated: Sat, 26-Nov-2022 9:51am EST
Clear
Clear
 Wind from NW
Wind: NW 12 mph , 19 km/h, Gust: 24 mph , 39 km/h
Temperature: 45°F , 7°C
Wind Chill: 39°F , 4°C
Dew Point: 25°F , -4°C
Humidity: 46%
Barometer: 29.95 inHg , 1014.2 hPa
Clouds: Clear
Visibility: 10 miles , 16 km
2022/11/26 14:51 KPVD 261451Z 31010G21KT 10SM CLR 07/M04 A2995 RMK AO2 SLP143 T00671039 50011
KUUU - Newport, Rhode Island, USA
Distance from station: SSW 16mi, 27km
Updated: Sat, 26-Nov-2022 8:53am EST
Clear
Clear
 Wind from WNW
Wind: WNW 9 mph , 15 km/h, Gust: 18 mph , 30 km/h
Temperature: 39°F , 4°C
Wind Chill: 33°F , 1°C
Dew Point: 27°F , -3°C
Humidity: 61%
Barometer: 29.95 inHg , 1014.2 hPa
Clouds: Clear
Visibility: 10 miles , 16 km
2022/11/26 13:53 KUUU 261353Z AUTO 29008G16KT 10SM CLR 04/M03 A2995 RMK AO2 SLP142 T00441033
 
KOQU - N. Kingston/Quon, Rhode Island, USA
Distance from station: WSW 18mi, 29km
Updated: Sat, 26-Nov-2022 9:50am EST
Clear
Clear
 Wind from NW
Wind: NW 18 mph , 30 km/h
Temperature: 45°F , 7°C
Wind Chill: 37°F , 3°C
Dew Point: 27°F , -3°C
Humidity: 49%
Barometer: 29.96 inHg , 1014.6 hPa
Clouds: Clear
Visibility: 10 miles , 16 km
2022/11/26 14:50 KOQU 261450Z 32016KT 10SM SKC 07/M03 A2996
KPYM - Plymouth, Massachusetts, USA
Distance from station: ENE 23mi, 37km
Updated: Sat, 26-Nov-2022 8:52am EST
Clear
Clear
 Wind from W
Wind: W 12 mph , 19 km/h
Temperature: 43°F , 6°C
Wind Chill: 37°F , 3°C
Dew Point: 25°F , -4°C
Humidity: 49%
Barometer: 29.91 inHg , 1012.9 hPa
Clouds: Clear
Visibility: 10 miles , 16 km
2022/11/26 13:52 KPYM 261352Z AUTO 28010KT 10SM CLR 06/M04 A2991 RMK AO2 SLP130 T00561039
 
KSFZ - Pawtucket, Rhode Island, USA
Distance from station: WNW 23mi, 38km
Updated: Sat, 26-Nov-2022 8:56am EST
Clear
Clear
 Wind from WNW
Wind: WNW 10 mph , 17 km/h, Gust: 16 mph , 26 km/h
Temperature: 39°F , 4°C
Wind Chill: 32°F , 0°C
Dew Point: 25°F , -4°C
Humidity: 56%
Barometer: 29.93 inHg , 1013.5 hPa
Clouds: Clear
Visibility: 10 miles , 16 km
2022/11/26 13:56 KSFZ 261356Z AUTO 29009G14KT 10SM CLR 04/M04 A2993 RMK AO2 SLP139 T00391039
KOWD - Norwood, Massachusetts, USA
Distance from station: N 31mi, 50km
Updated: Sat, 26-Nov-2022 8:53am EST
Clear
Clear
 Wind from WNW
Wind: WNW 9 mph , 15 km/h
Temperature: 45°F , 7°C
Wind Chill: 40°F , 4°C
Dew Point: 25°F , -4°C
Humidity: 46%
Barometer: 29.93 inHg , 1013.5 hPa
Clouds: Clear
Visibility: 10 miles , 16 km
2022/11/26 13:53 KOWD 261353Z 29008KT 10SM CLR 07/M04 A2993 RMK AO2 SLP134 T00671044
 
KFMH - Falmouth/Otis Ab, Massachusetts, USA
Distance from station: ESE 32mi, 51km
Updated: Sat, 26-Nov-2022 8:56am EST
Clear
Clear
 Wind from WNW
Wind: WNW 17 mph , 28 km/h, Gust: 29 mph , 46 km/h
Temperature: 41°F , 5°C
Wind Chill: 33°F , 1°C
Dew Point: 25°F , -4°C
Humidity: 53%
Barometer: 29.91 inHg , 1012.9 hPa
Clouds: Clear
Visibility: 10 miles , 16 km
2022/11/26 13:56 KFMH 261356Z 30015G25KT 10SM CLR 05/M04 A2991
KMQE - East Milton, Massachusetts, USA
Distance from station: N 33mi, 53km
Updated: Thu, 01-Jul-2021 9:51am EDT
NOT Current

 Wind from WNW
Wind: WNW 9 mph , 15 km/h
Temperature: 75°F , 24°C
Dew Point: 70°F , 21°C
Humidity: 83%
Barometer: 29.86 inHg , 1011.2 hPa
2021/07/01 13:51 KMQE 011351Z AUTO 30008KT 24/21 A2986 RMK AO1 SLP116 T02440206
 
KGHG - Marshfield, Massachusetts, USA
Distance from station: NE 34mi, 55km
Updated: Sat, 26-Nov-2022 9:35am EST

 Wind from NW
Wind: NW 10 mph , 17 km/h, Gust: 25 mph , 41 km/h
Temperature: 43°F , 6°C
Wind Chill: 37°F , 3°C
Dew Point: 25°F , -4°C
Humidity: 49%
Barometer: 29.91 inHg , 1012.9 hPa
Visibility: 10 miles , 16 km
2022/11/26 14:35 KGHG 261435Z AUTO 31009G22KT 270V340 10SM 06/M04 A2991 RMK AO2
KMVY - Marthas Vineyard, Massachusetts, USA
Distance from station: SE 35mi, 56km
Updated: Sat, 26-Nov-2022 8:53am EST
Clear
Clear
 Wind from WNW
Wind: WNW 20 mph , 31 km/h, Gust: 28 mph , 44 km/h
Temperature: 45°F , 7°C
Wind Chill: 37°F , 3°C
Dew Point: 28°F , -2°C
Humidity: 53%
Barometer: 29.93 inHg , 1013.5 hPa
Clouds: Clear
Visibility: 10 miles , 16 km
2022/11/26 13:53 KMVY 261353Z 30017G24KT 10SM CLR 07/M02 A2993 RMK AO2 PK WND 31027/1329 RAB00E47 SLP135 P0000 T00671022
 
KBOS - Boston, Massachusetts, USA
Distance from station: N 44mi, 71km
Updated: Sat, 26-Nov-2022 8:54am EST
Few Clouds
Few Clouds
 Wind from WNW
Wind: WNW 16 mph , 26 km/h, Gust: 24 mph , 39 km/h
Temperature: 43°F , 6°C
Wind Chill: 35°F , 2°C
Dew Point: 25°F , -4°C
Humidity: 49%
Barometer: 29.92 inHg , 1013.2 hPa
Clouds: Few Clouds
Visibility: 10 miles , 16 km
Cloud details: Few Clouds 4500 ft
2022/11/26 13:54 KBOS 261354Z 30014G21KT 10SM FEW045 06/M04 A2992 RMK AO2 SLP131 T00561044
KHYA - Hyannis, Massachusetts, USA
Distance from station: E 44mi, 71km
Updated: Sat, 26-Nov-2022 8:56am EST
Clear
Clear
 Wind from WNW
Wind: WNW 14 mph , 22 km/h, Gust: 25 mph , 41 km/h
Temperature: 41°F , 5°C
Wind Chill: 33°F , 1°C
Dew Point: 25°F , -4°C
Humidity: 53%
Barometer: 29.88 inHg , 1011.9 hPa
Clouds: Clear
Visibility: 10 miles , 16 km
2022/11/26 13:56 KHYA 261356Z 30012G22KT 10SM CLR 05/M04 A2988 RMK AO2 SLP120 T00501039
 
KWST - Westerly, Rhode Island, USA
Distance from station: SW 44mi, 71km
Updated: Sat, 26-Nov-2022 8:53am EST
Clear
Clear
 Wind from varies
Wind: varies 7 mph , 11 km/h
Temperature: 43°F , 6°C
Wind Chill: 39°F , 4°C
Dew Point: 27°F , -3°C
Humidity: 53%
Barometer: 29.97 inHg , 1014.9 hPa
Clouds: Clear
Visibility: 10 miles , 16 km
2022/11/26 13:53 KWST 261353Z AUTO VRB06KT 10SM CLR 06/M03 A2997 RMK AO2 SLP149 T00611028
KBID - Block Island, Rhode Island, USA
Distance from station: SSW 46mi, 74km
Updated: Sat, 26-Nov-2022 8:56am EST
Clear
Clear
 Wind from NW
Wind: NW 16 mph , 26 km/h, Gust: 24 mph , 39 km/h
Temperature: 43°F , 6°C
Wind Chill: 35°F , 2°C
Dew Point: 28°F , -2°C
Humidity: 57%
Barometer: 29.99 inHg , 1015.6 hPa
Clouds: Clear
Visibility: 10 miles , 16 km
2022/11/26 13:56 KBID 261356Z AUTO 31014G21KT 10SM CLR 06/M02 A2999 RMK AO2 SLP156 T00611022